createdAt,value
2023-03-02T00:01:39.600Z,0.20
2023-03-02T00:07:17.350Z,0.10
2023-03-02T00:12:45.285Z,0.00
2023-03-02T00:18:13.099Z,0.00
2023-03-02T00:23:41.040Z,0.00
2023-03-02T00:29:09.250Z,-0.10
2023-03-02T00:34:37.225Z,-0.10
2023-03-02T00:40:09.536Z,-0.10
2023-03-02T00:45:37.394Z,-0.10
2023-03-02T00:51:06.826Z,-0.20
2023-03-02T00:56:35.316Z,-0.20
2023-03-02T01:02:07.019Z,-0.30
2023-03-02T01:07:35.798Z,-0.30
2023-03-02T01:13:04.766Z,-0.40
2023-03-02T01:18:34.536Z,-0.40
2023-03-02T01:24:03.125Z,-0.40
2023-03-02T01:29:31.250Z,-0.50
2023-03-02T01:34:58.984Z,-0.50
2023-03-02T01:40:27.187Z,-0.60
2023-03-02T01:45:57.258Z,-0.60
2023-03-02T01:51:42.718Z,-0.60
2023-03-02T01:57:11.754Z,-0.60
2023-03-02T02:02:41.985Z,-0.60
2023-03-02T02:08:10.614Z,-0.60
2023-03-02T02:13:39.596Z,-0.70
2023-03-02T02:19:42.426Z,-0.70
2023-03-02T02:25:53.274Z,-0.70
2023-03-02T02:31:27.778Z,-0.80
2023-03-02T02:37:03.845Z,-0.80
2023-03-02T02:42:37.709Z,-0.80
2023-03-02T02:48:11.508Z,-0.90
2023-03-02T02:53:58.768Z,-0.90
2023-03-02T02:59:53.953Z,-0.90
2023-03-02T03:05:22.564Z,-0.90
2023-03-02T03:10:50.682Z,-0.90
2023-03-02T03:16:21.562Z,-0.90
2023-03-02T03:21:58.579Z,-0.80
2023-03-02T03:27:29.000Z,-0.80
2023-03-02T03:32:57.084Z,-0.80
2023-03-02T03:38:25.357Z,-0.70
2023-03-02T03:43:53.862Z,-0.70
2023-03-02T03:49:23.136Z,-0.70
2023-03-02T03:54:51.189Z,-0.70
2023-03-02T04:00:20.014Z,-0.80
2023-03-02T04:05:54.616Z,-0.70
2023-03-02T04:11:23.265Z,-0.70
2023-03-02T04:16:53.347Z,-0.80
2023-03-02T04:22:23.744Z,-0.80
2023-03-02T04:27:53.968Z,-0.80
2023-03-02T04:33:23.120Z,-0.80
2023-03-02T04:38:51.855Z,-0.90
2023-03-02T04:44:21.332Z,-0.90
2023-03-02T04:49:50.836Z,-1.00
2023-03-02T04:55:22.652Z,-1.00
2023-03-02T05:00:50.371Z,-1.10
2023-03-02T05:06:21.742Z,-1.20
2023-03-02T05:11:49.926Z,-1.30
2023-03-02T05:17:17.980Z,-1.40
2023-03-02T05:22:46.180Z,-1.40
2023-03-02T05:28:14.345Z,-1.50
2023-03-02T05:33:42.006Z,-1.50
2023-03-02T05:39:10.422Z,-1.60
2023-03-02T05:44:38.429Z,-1.60
2023-03-02T05:50:06.967Z,-1.60
2023-03-02T05:55:37.232Z,-1.60
2023-03-02T06:01:13.573Z,-1.50
2023-03-02T06:06:42.934Z,-1.50
2023-03-02T06:12:10.898Z,-1.50
2023-03-02T06:17:38.870Z,-1.40
2023-03-02T06:23:06.736Z,-1.30
2023-03-02T06:28:49.688Z,-1.20
2023-03-02T06:34:19.593Z,-1.10
2023-03-02T06:39:47.805Z,-0.90
2023-03-02T06:45:15.640Z,-0.80
2023-03-02T06:50:43.788Z,-0.60
2023-03-02T06:56:12.087Z,-0.40
2023-03-02T07:01:40.173Z,-0.20
2023-03-02T07:07:07.943Z,0.00
2023-03-02T07:12:36.291Z,0.20
2023-03-02T07:18:04.081Z,0.50
2023-03-02T07:23:33.708Z,0.70
2023-03-02T07:29:01.913Z,0.90
2023-03-02T07:34:30.864Z,1.10
2023-03-02T07:40:00.610Z,1.30
2023-03-02T07:45:28.672Z,1.60
2023-03-02T07:51:05.267Z,1.80
2023-03-02T07:56:33.410Z,2.00
2023-03-02T08:02:01.090Z,2.20
2023-03-02T08:07:28.934Z,2.40
2023-03-02T08:12:56.790Z,2.50
2023-03-02T08:18:24.655Z,2.70
2023-03-02T08:23:53.016Z,2.90
2023-03-02T08:29:21.423Z,3.10
2023-03-02T08:34:51.870Z,3.10
2023-03-02T08:40:19.889Z,3.40
2023-03-02T08:45:55.080Z,3.50
2023-03-02T08:51:25.068Z,3.70
2023-03-02T08:56:53.192Z,3.90
2023-03-02T09:02:21.901Z,4.10
2023-03-02T09:07:50.242Z,4.40
2023-03-02T09:13:18.096Z,4.60
2023-03-02T09:18:47.296Z,4.50
2023-03-02T09:24:14.990Z,4.60
2023-03-02T09:29:42.871Z,4.80
2023-03-02T09:35:10.965Z,4.90
2023-03-02T09:41:07.684Z,5.20
2023-03-02T09:46:54.476Z,5.40
2023-03-02T09:52:32.797Z,5.60
2023-03-02T09:58:05.302Z,5.80
2023-03-02T10:03:47.201Z,6.00
2023-03-02T10:09:15.437Z,6.30
2023-03-02T10:15:31.590Z,6.60
2023-03-02T10:21:23.189Z,6.80
2023-03-02T10:26:59.724Z,7.00
2023-03-02T10:32:36.442Z,7.40
2023-03-02T10:38:23.340Z,7.50
2023-03-02T10:44:14.562Z,7.80
2023-03-02T10:49:43.319Z,8.10
2023-03-02T10:55:15.944Z,8.30
2023-03-02T11:00:44.227Z,8.30
2023-03-02T11:06:25.413Z,8.40
2023-03-02T11:11:57.041Z,8.50
2023-03-02T11:17:38.593Z,8.50
2023-03-02T11:23:38.748Z,8.70
2023-03-02T11:29:50.455Z,8.80
2023-03-02T11:35:59.303Z,9.00
2023-03-02T11:41:33.531Z,9.00
2023-03-02T11:47:06.175Z,9.10
2023-03-02T11:52:53.471Z,9.20
2023-03-02T11:58:25.476Z,9.60
2023-03-02T12:04:07.469Z,10.00
2023-03-02T12:09:38.018Z,10.30
2023-03-02T12:15:39.270Z,10.60
2023-03-02T12:21:13.360Z,10.90
2023-03-02T12:26:41.237Z,11.00
2023-03-02T12:32:27.322Z,10.80
2023-03-02T12:38:25.298Z,10.80
2023-03-02T12:44:35.595Z,11.10
2023-03-02T12:50:18.001Z,11.20
2023-03-02T12:55:46.822Z,11.00
2023-03-02T13:01:24.599Z,11.10
2023-03-02T13:06:54.305Z,11.10
2023-03-02T13:12:23.240Z,11.30
2023-03-02T13:18:04.652Z,11.70
2023-03-02T13:23:34.055Z,12.70
2023-03-02T13:29:14.860Z,13.70
2023-03-02T13:34:51.187Z,14.10
2023-03-02T13:40:30.231Z,14.60
2023-03-02T13:46:06.059Z,15.00
2023-03-02T13:51:44.356Z,15.40
2023-03-02T13:57:30.656Z,16.00
2023-03-02T14:03:00.579Z,16.80
2023-03-02T14:08:28.914Z,17.70
2023-03-02T14:14:03.239Z,18.50
2023-03-02T14:19:31.323Z,19.20
2023-03-02T14:24:59.398Z,19.80
2023-03-02T14:30:27.844Z,20.50
2023-03-02T14:35:58.636Z,20.90
2023-03-02T14:41:29.220Z,21.30
2023-03-02T14:46:58.302Z,21.00
2023-03-02T14:52:34.924Z,20.80
2023-03-02T14:58:20.318Z,19.80
2023-03-02T15:03:48.553Z,19.40
2023-03-02T15:09:17.654Z,18.80
2023-03-02T15:14:45.661Z,18.00
2023-03-02T15:20:17.151Z,17.30
2023-03-02T15:25:45.342Z,16.40
2023-03-02T15:31:16.554Z,15.50
2023-03-02T15:36:44.438Z,14.90
2023-03-02T15:42:13.919Z,13.50
2023-03-02T15:47:41.918Z,12.20
2023-03-02T15:53:10.099Z,11.70
2023-03-02T15:58:38.048Z,10.80
2023-03-02T16:04:05.873Z,10.20
2023-03-02T16:09:33.752Z,10.20
2023-03-02T16:15:01.724Z,9.60
2023-03-02T16:20:29.499Z,9.00
2023-03-02T16:26:11.312Z,8.40
2023-03-02T16:31:41.034Z,8.00
2023-03-02T16:37:09.188Z,7.60
2023-03-02T16:42:37.182Z,7.00
2023-03-02T16:48:07.062Z,6.60
2023-03-02T16:53:35.378Z,6.20
2023-03-02T16:59:03.496Z,5.80
2023-03-02T17:04:35.236Z,5.40
2023-03-02T17:10:04.903Z,5.00
2023-03-02T17:15:33.309Z,4.70
2023-03-02T17:21:01.420Z,4.40
2023-03-02T17:26:29.232Z,4.20
2023-03-02T17:31:57.141Z,4.00
2023-03-02T17:37:26.094Z,3.80
2023-03-02T17:42:57.378Z,3.60
2023-03-02T17:48:26.779Z,3.40
2023-03-02T17:53:56.313Z,3.30
2023-03-02T17:59:24.198Z,3.10
2023-03-02T18:04:52.829Z,3.00
2023-03-02T18:10:20.652Z,2.90
2023-03-02T18:15:48.490Z,2.70
2023-03-02T18:21:17.428Z,2.60
2023-03-02T18:26:45.376Z,2.50
2023-03-02T18:32:13.706Z,2.40
2023-03-02T18:37:41.653Z,2.30
2023-03-02T18:43:11.791Z,2.30
2023-03-02T18:48:40.699Z,2.20
2023-03-02T18:54:12.874Z,2.10
2023-03-02T18:59:44.396Z,2.10
2023-03-02T19:05:12.587Z,2.00
2023-03-02T19:10:42.328Z,1.90
2023-03-02T19:16:10.211Z,1.90
2023-03-02T19:21:39.060Z,1.80
2023-03-02T19:27:09.716Z,1.70
2023-03-02T19:32:38.969Z,1.70
2023-03-02T19:38:09.630Z,1.60
2023-03-02T19:43:38.113Z,1.60
2023-03-02T19:49:06.348Z,1.50
2023-03-02T19:54:34.538Z,1.50
2023-03-02T20:00:05.292Z,1.50
2023-03-02T20:05:37.290Z,1.40
2023-03-02T20:11:06.807Z,1.40
2023-03-02T20:16:36.537Z,1.30
2023-03-02T20:22:07.723Z,1.30
2023-03-02T20:27:35.935Z,1.20
2023-03-02T20:33:08.428Z,1.20
2023-03-02T20:38:45.773Z,1.10
2023-03-02T20:44:14.967Z,1.10
2023-03-02T20:49:43.478Z,1.00
2023-03-02T20:55:12.620Z,1.00
2023-03-02T21:00:41.438Z,1.00
2023-03-02T21:06:12.140Z,0.90
2023-03-02T21:11:41.102Z,0.80
2023-03-02T21:17:10.070Z,0.80
2023-03-02T21:22:38.394Z,0.70
2023-03-02T21:28:06.667Z,0.70
2023-03-02T21:33:34.520Z,0.60
2023-03-02T21:39:03.458Z,0.60
2023-03-02T21:44:31.481Z,0.50
2023-03-02T21:49:59.332Z,0.50
2023-03-02T21:55:29.589Z,0.50
2023-03-02T22:00:57.836Z,0.40
2023-03-02T22:06:29.268Z,0.40
2023-03-02T22:11:58.122Z,0.40
2023-03-02T22:17:26.028Z,0.30
2023-03-02T22:22:54.543Z,0.20
2023-03-02T22:28:26.309Z,0.20
2023-03-02T22:33:54.384Z,0.10
2023-03-02T22:39:31.094Z,0.10
2023-03-02T22:45:15.135Z,0.10
2023-03-02T22:50:47.060Z,0.00
2023-03-02T22:56:41.241Z,0.00
2023-03-02T23:02:15.763Z,-0.10
2023-03-02T23:07:44.657Z,-0.10
2023-03-02T23:13:18.700Z,-0.10
2023-03-02T23:18:50.622Z,-0.10
2023-03-02T23:24:22.154Z,-0.20
2023-03-02T23:29:50.894Z,-0.20
2023-03-02T23:35:18.864Z,-0.20
2023-03-02T23:40:47.795Z,-0.20
2023-03-02T23:46:15.693Z,-0.20
2023-03-02T23:51:45.195Z,-0.30
2023-03-02T23:57:14.267Z,-0.30
